Time;durP1;ratioP1;P1;durP2;ratioP2;P2;SDS_P1;SDS_P2;PMS_P1;PMS_P2;Temp;Humidity;BMP_temperature;BMP_pressure;BME280_temperature;BME280_humidity;BME280_pressure;Samples;Min_cycle;Max_cycle;Signal;HPM_P1;HPM_P2
2021/07/26 00:02:22;;;;;;;8.85;4.63;;;;;;;17.89;52.79;100440.41;5070751;28;20036;-49
2021/07/26 00:04:47;;;;;;;11.07;4.70;;;;;;;17.84;52.85;100444.59;5070290;28;20020;-50
2021/07/26 00:07:13;;;;;;;11.82;4.53;;;;;;;17.84;52.99;100448.13;5070898;28;20021;-54
2021/07/26 00:09:38;;;;;;;7.05;4.50;;;;;;;17.82;53.22;100446.59;5065956;28;20178;-50
2021/07/26 00:12:05;;;;;;;11.85;5.20;;;;;;;17.82;52.84;100449.31;5050895;28;20414;-52
2021/07/26 00:14:32;;;;;;;10.98;4.88;;;;;;;17.79;53.12;100447.75;5050524;28;20039;-53
2021/07/26 00:16:58;;;;;;;12.32;4.60;;;;;;;17.72;53.33;100446.69;5050860;28;20040;-53
2021/07/26 00:19:23;;;;;;;11.60;4.75;;;;;;;17.76;53.18;100453.47;5051898;28;20025;-49
2021/07/26 00:21:49;;;;;;;16.75;5.13;;;;;;;17.72;53.05;100454.81;5051097;28;21339;-50
2021/07/26 00:24:16;;;;;;;9.93;4.70;;;;;;;17.69;53.63;100449.72;5066944;28;20028;-54
2021/07/26 00:26:42;;;;;;;7.15;4.20;;;;;;;17.70;53.09;100451.41;5103402;28;20056;-52
2021/07/26 00:29:07;;;;;;;11.65;4.78;;;;;;;17.69;53.38;100453.25;5070741;28;20481;-55
2021/07/26 00:31:33;;;;;;;11.90;4.70;;;;;;;17.65;53.49;100450.03;5070985;28;20032;-54
2021/07/26 00:34:25;;;;;;;9.55;4.50;;;;;;;17.73;53.02;100451.09;5069259;28;20196;-52
2021/07/26 00:36:55;;;;;;;16.42;4.43;;;;;;;17.64;53.38;100456.44;5070676;28;20032;-49
2021/07/26 00:39:33;;;;;;;11.38;4.40;;;;;;;17.70;52.87;100459.53;5070123;28;20029;-54
2021/07/26 00:41:59;;;;;;;13.63;4.72;;;;;;;17.46;53.92;100431.22;5069308;28;20028;-51
2021/07/26 00:44:27;;;;;;;10.15;4.82;;;;;;;17.45;53.55;100446.59;5069186;28;20086;-54
2021/07/26 00:46:54;;;;;;;6.97;4.43;;;;;;;17.55;53.77;100462.75;5071012;28;20051;-53
2021/07/26 00:49:21;;;;;;;7.60;4.38;;;;;;;17.56;53.49;100466.34;5071084;28;20471;-54
2021/07/26 00:51:49;;;;;;;8.35;4.30;;;;;;;17.52;53.34;100457.66;5070367;28;20412;-53
2021/07/26 00:54:18;;;;;;;13.75;5.10;;;;;;;17.42;53.07;100436.06;5067806;28;20029;-51
2021/07/26 00:56:46;;;;;;;11.88;4.80;;;;;;;17.63;52.78;100465.56;5050733;28;20033;-53
2021/07/26 00:59:12;;;;;;;8.93;4.65;;;;;;;17.63;52.86;100459.28;5050911;28;20086;-54
2021/07/26 01:01:38;;;;;;;8.02;4.70;;;;;;;17.75;52.54;100468.03;5050405;28;20033;-54
2021/07/26 01:04:04;;;;;;;8.30;4.57;;;;;;;17.78;52.26;100465.00;5051146;28;20029;-49
2021/07/26 01:06:29;;;;;;;8.40;4.43;;;;;;;17.78;51.69;100456.88;5050945;28;20059;-50
2021/07/26 01:08:55;;;;;;;8.63;4.40;;;;;;;17.87;52.13;100465.94;5050926;28;20029;-54
2021/07/26 01:11:21;;;;;;;7.05;4.38;;;;;;;17.70;51.75;100440.56;5050201;28;20762;-53
2021/07/26 01:13:47;;;;;;;8.55;4.68;;;;;;;17.85;51.94;100463.41;5050301;28;20106;-51
2021/07/26 01:16:12;;;;;;;4.85;3.70;;;;;;;17.90;52.00;100471.03;5053993;28;20024;-56
2021/07/26 01:18:38;;;;;;;7.53;4.38;;;;;;;17.84;51.81;100456.25;5054425;28;20076;-52
2021/07/26 01:21:08;;;;;;;7.95;4.30;;;;;;;17.93;51.86;100466.16;5054036;28;20116;-52
2021/07/26 01:23:36;;;;;;;9.25;4.60;;;;;;;17.85;52.15;100463.41;5054371;28;20033;-50
2021/07/26 01:26:03;;;;;;;5.72;4.03;;;;;;;17.83;52.30;100473.50;5055429;28;20078;-52
2021/07/26 01:28:33;;;;;;;7.78;3.88;;;;;;;17.83;52.36;100470.81;5054347;28;20509;-52
2021/07/26 01:30:59;;;;;;;8.15;3.97;;;;;;;17.76;52.70;100476.00;5053915;28;20033;-48
2021/07/26 01:33:24;;;;;;;6.03;4.07;;;;;;;17.77;52.54;100476.84;5054079;28;20171;-49
2021/07/26 01:35:51;;;;;;;5.53;3.75;;;;;;;17.75;52.68;100471.59;5055133;28;20037;-54
2021/07/26 01:38:17;;;;;;;6.22;4.35;;;;;;;17.78;52.87;100479.41;5073791;28;20039;-50
2021/07/26 01:40:44;;;;;;;9.13;4.13;;;;;;;17.79;52.54;100475.69;5072062;28;20028;-48
2021/07/26 01:43:10;;;;;;;7.82;3.58;;;;;;;17.86;52.51;100486.78;5073841;28;20032;-58
2021/07/26 01:45:39;;;;;;;6.40;3.90;;;;;;;17.92;52.44;100491.56;5074056;28;20113;-50
2021/07/26 01:48:39;;;;;;;5.85;4.20;;;;;;;18.04;51.84;100492.19;5061409;28;20036;-52
2021/07/26 01:51:15;;;;;;;7.53;4.07;;;;;;;18.04;51.76;100489.50;5053131;28;20076;-50
2021/07/26 01:53:43;;;;;;;7.32;4.78;;;;;;;17.89;51.83;100458.50;5053389;28;20033;-53
2021/07/26 01:56:10;;;;;;;6.80;4.65;;;;;;;18.05;51.77;100479.50;5056909;28;20115;-56
2021/07/26 01:58:36;;;;;;;8.40;4.38;;;;;;;18.06;51.87;100486.59;5058315;28;20025;-53
2021/07/26 02:01:02;;;;;;;6.80;4.82;;;;;;;18.07;51.47;100485.59;5050093;28;20488;-51
2021/07/26 02:03:29;;;;;;;7.70;4.18;;;;;;;18.10;51.68;100488.03;5052851;28;20033;-54
2021/07/26 02:05:55;;;;;;;5.70;3.97;;;;;;;18.08;51.78;100490.88;5053165;28;20028;-51
2021/07/26 02:08:20;;;;;;;6.43;4.50;;;;;;;18.10;51.60;100488.03;5054061;28;20481;-52
2021/07/26 02:10:45;;;;;;;11.77;4.20;;;;;;;18.10;51.67;100482.59;5053268;28;20041;-49
2021/07/26 02:13:11;;;;;;;5.65;3.85;;;;;;;18.16;51.77;100487.38;5062149;28;20059;-52
2021/07/26 02:15:36;;;;;;;6.85;4.10;;;;;;;18.11;51.14;100470.75;5052536;28;20040;-52
2021/07/26 02:18:02;;;;;;;7.18;4.45;;;;;;;18.20;51.42;100483.34;5052679;28;20029;-54
2021/07/26 02:20:27;;;;;;;10.13;4.18;;;;;;;18.26;51.21;100494.56;5072903;28;20035;-54
2021/07/26 02:22:53;;;;;;;6.72;4.05;;;;;;;18.17;50.99;100472.81;5072912;28;20051;-52
2021/07/26 02:25:19;;;;;;;8.15;4.40;;;;;;;18.36;51.04;100488.03;5072604;28;20640;-51
2021/07/26 02:27:45;;;;;;;8.50;4.13;;;;;;;18.46;50.81;100485.22;5071720;28;20089;-52
2021/07/26 02:30:11;;;;;;;6.53;4.63;;;;;;;18.60;50.59;100494.63;5070981;28;20024;-48
2021/07/26 02:32:37;;;;;;;5.40;3.97;;;;;;;18.76;50.35;100493.03;5072386;28;20052;-52
2021/07/26 02:35:03;;;;;;;7.60;4.47;;;;;;;18.92;49.40;100493.09;5073040;28;20044;-52
2021/07/26 02:37:28;;;;;;;7.80;4.38;;;;;;;19.08;49.30;100486.94;5073042;28;20387;-50
2021/07/26 02:39:53;;;;;;;11.30;4.07;;;;;;;19.19;48.59;100482.22;5066956;28;20021;-50
2021/07/26 02:42:19;;;;;;;9.27;5.20;;;;;;;19.33;48.67;100494.31;5052915;28;20063;-52
2021/07/26 02:44:44;;;;;;;7.43;4.75;;;;;;;19.46;48.05;100493.84;5052780;28;20025;-51
2021/07/26 02:47:10;;;;;;;13.55;5.13;;;;;;;19.49;48.03;100494.38;5052328;28;20029;-48
2021/07/26 02:49:35;;;;;;;12.45;5.13;;;;;;;19.58;48.07;100499.81;5053607;28;20028;-52
2021/07/26 02:52:01;;;;;;;9.60;4.43;;;;;;;19.65;48.67;100500.81;5052949;28;20039;-53
2021/07/26 02:54:26;;;;;;;9.85;4.60;;;;;;;19.71;47.59;100512.91;5052505;28;20109;-54
2021/07/26 02:56:52;;;;;;;9.43;4.80;;;;;;;19.74;47.64;100505.28;5051904;28;20512;-48
2021/07/26 02:59:17;;;;;;;9.15;4.43;;;;;;;19.82;48.48;100507.16;5052406;28;20036;-51
2021/07/26 03:01:43;;;;;;;11.48;4.55;;;;;;;19.83;47.26;100500.72;5066347;28;20027;-50
2021/07/26 03:04:10;;;;;;;8.80;4.35;;;;;;;19.95;46.75;100509.41;5072634;28;20040;-52
2021/07/26 03:06:36;;;;;;;7.35;4.60;;;;;;;20.04;47.71;100510.28;5071994;28;20048;-50
2021/07/26 03:09:01;;;;;;;8.55;4.15;;;;;;;20.17;46.50;100509.75;5072256;28;20117;-49
2021/07/26 03:11:27;;;;;;;6.18;4.00;;;;;;;20.25;45.84;100503.44;5064037;28;20068;-51
2021/07/26 03:13:52;;;;;;;9.05;4.72;;;;;;;20.36;44.91;100506.66;5052980;28;20040;-55
2021/07/26 03:16:20;;;;;;;8.52;4.28;;;;;;;20.44;44.62;100511.25;5069212;28;20028;-50
2021/07/26 03:18:45;;;;;;;11.68;4.72;;;;;;;20.54;44.65;100510.22;5069786;28;20028;-50
2021/07/26 03:21:15;;;;;;;9.10;4.50;;;;;;;20.69;44.41;100516.66;5067224;28;20081;-49
2021/07/26 03:23:41;;;;;;;9.55;5.28;;;;;;;20.75;43.33;100499.66;5069753;28;20530;-50
2021/07/26 03:26:07;;;;;;;11.18;4.22;;;;;;;20.89;43.16;100510.84;5070022;28;20033;-54
2021/07/26 03:28:33;;;;;;;7.55;4.40;;;;;;;21.04;42.96;100514.56;5070556;28;20032;-50
2021/07/26 03:30:59;;;;;;;8.38;4.53;;;;;;;21.23;42.71;100507.81;5070803;28;20050;-53
2021/07/26 03:33:25;;;;;;;9.57;4.63;;;;;;;21.66;41.70;100506.59;5080226;28;20087;-55
2021/07/26 03:35:51;;;;;;;8.57;5.03;;;;;;;22.21;39.69;100481.97;5078007;28;20032;-52
2021/07/26 03:38:20;;;;;;;9.00;4.18;;;;;;;23.21;38.32;100507.19;5081090;28;20433;-48
2021/07/26 03:40:47;;;;;;;10.13;4.07;;;;;;;24.00;36.76;100501.13;5087063;28;20035;-56
2021/07/26 03:43:13;;;;;;;6.22;3.95;;;;;;;24.75;34.65;100500.72;5049933;28;20390;-51
2021/07/26 03:45:38;;;;;;;7.53;4.10;;;;;;;25.52;33.28;100497.91;5051046;28;20453;-54
2021/07/26 03:48:04;;;;;;;5.90;4.03;;;;;;;26.20;31.87;100502.47;5051479;28;20361;-53
2021/07/26 03:50:30;;;;;;;7.22;4.70;;;;;;;26.99;29.97;100493.50;5050355;28;20032;-53
2021/07/26 03:52:57;;;;;;;8.77;3.95;;;;;;;27.88;28.73;100492.88;5051059;28;20033;-61
2021/07/26 03:55:28;;;;;;;7.45;4.25;;;;;;;28.77;27.60;100500.16;5050939;28;20036;-56
2021/07/26 03:57:54;;;;;;;10.25;4.65;;;;;;;29.53;25.78;100490.78;5051069;28;20036;-53
2021/07/26 04:00:22;;;;;;;5.78;4.18;;;;;;;30.29;24.58;100492.19;5052003;28;20045;-52
2021/07/26 04:02:52;;;;;;;10.30;3.83;;;;;;;30.94;23.90;100498.66;5063697;28;20086;-52
2021/07/26 04:05:24;;;;;;;5.75;4.07;;;;;;;31.56;22.42;100486.06;5067590;28;20040;-51
2021/07/26 04:07:50;;;;;;;8.35;3.78;;;;;;;32.22;22.01;100485.59;5067950;28;20167;-52
2021/07/26 04:10:16;;;;;;;5.50;3.63;;;;;;;32.74;20.85;100485.53;5070630;28;20096;-50
2021/07/26 04:12:45;;;;;;;8.40;4.00;;;;;;;33.23;20.34;100482.00;5070032;28;20036;-55
2021/07/26 04:15:11;;;;;;;8.20;3.83;;;;;;;33.82;19.86;100482.34;5070900;28;20044;-55
2021/07/26 04:17:38;;;;;;;7.05;3.95;;;;;;;34.36;19.39;100486.97;5071296;28;20032;-53
2021/07/26 04:20:06;;;;;;;10.18;4.22;;;;;;;34.86;18.47;100493.16;5070290;28;20025;-54
2021/07/26 04:22:32;;;;;;;4.47;3.50;;;;;;;35.46;17.89;100489.22;5070977;28;20058;-52
2021/07/26 04:24:57;;;;;;;6.38;3.42;;;;;;;35.96;17.22;100483.16;5063020;28;20446;-54
2021/07/26 04:27:26;;;;;;;7.40;3.75;;;;;;;36.58;17.17;100488.69;5050752;28;20054;-52
2021/07/26 04:29:53;;;;;;;6.15;3.53;;;;;;;36.90;16.36;100496.69;5050588;28;20066;-55
2021/07/26 04:32:19;;;;;;;7.60;3.38;;;;;;;37.41;16.07;100483.59;5050697;28;20089;-53
2021/07/26 04:34:44;;;;;;;6.13;3.92;;;;;;;37.83;15.23;100473.00;5050547;28;20040;-54
2021/07/26 04:37:10;;;;;;;4.13;3.25;;;;;;;38.54;14.63;100485.78;5058515;28;20062;-53
2021/07/26 04:39:35;;;;;;;7.18;3.22;;;;;;;39.13;14.02;100494.06;5071185;28;20439;-55
2021/07/26 04:42:01;;;;;;;5.10;3.20;;;;;;;39.70;13.28;100488.50;5070434;28;20036;-57
2021/07/26 04:44:27;;;;;;;4.65;3.40;;;;;;;40.16;13.13;100483.28;5070307;28;20021;-52
2021/07/26 04:46:53;;;;;;;5.40;2.88;;;;;;;40.59;12.45;100474.59;5070746;28;20044;-57
2021/07/26 04:49:20;;;;;;;4.18;3.13;;;;;;;41.14;12.04;100483.31;5065356;28;20108;-54
2021/07/26 04:51:45;;;;;;;5.85;3.30;;;;;;;41.45;11.91;100488.25;5054456;28;20052;-54
2021/07/26 04:54:11;;;;;;;6.50;3.25;;;;;;;41.70;11.63;100477.56;5054521;28;20067;-58
2021/07/26 04:56:37;;;;;;;7.20;3.60;;;;;;;42.03;11.22;100478.16;5055322;28;20047;-52
2021/07/26 04:59:21;;;;;;;5.00;3.40;;;;;;;42.59;10.82;100471.31;5055007;28;20136;-56
2021/07/26 05:01:46;;;;;;;5.97;2.97;;;;;;;42.81;11.15;100472.38;5059998;28;20036;-55
2021/07/26 05:04:12;;;;;;;5.03;3.20;;;;;;;42.86;10.94;100469.41;5074269;28;20094;-58
2021/07/26 05:06:37;;;;;;;3.67;3.13;;;;;;;43.08;10.83;100467.66;5074544;28;20115;-53
2021/07/26 05:09:03;;;;;;;4.60;2.67;;;;;;;43.08;10.54;100473.28;5074573;28;20107;-54
2021/07/26 05:11:28;;;;;;;6.65;3.38;;;;;;;43.16;10.63;100470.47;5074042;28;20111;-55
2021/07/26 05:13:53;;;;;;;4.93;3.08;;;;;;;43.69;10.05;100469.69;5072639;28;20031;-55
2021/07/26 05:16:20;;;;;;;5.35;3.22;;;;;;;44.31;9.73;100471.22;5058317;28;20464;-54
2021/07/26 05:18:45;;;;;;;7.60;3.22;;;;;;;44.86;8.95;100470.66;5054535;28;20075;-57
2021/07/26 05:21:11;;;;;;;3.95;2.97;;;;;;;45.08;8.88;100460.19;5054162;28;20033;-54
2021/07/26 05:23:36;;;;;;;5.18;3.00;;;;;;;45.54;8.62;100461.16;5054434;28;20086;-56
2021/07/26 05:26:03;;;;;;;6.47;3.13;;;;;;;45.77;8.54;100463.63;5054524;28;20033;-57
2021/07/26 05:28:28;;;;;;;3.15;2.58;;;;;;;45.87;8.58;100468.88;5055306;28;20029;-52
2021/07/26 05:30:54;;;;;;;5.78;2.92;;;;;;;45.90;8.54;100466.50;5053909;28;20025;-55
2021/07/26 05:33:19;;;;;;;4.32;2.60;;;;;;;45.98;8.63;100465.56;5053146;28;20064;-57
2021/07/26 05:35:45;;;;;;;4.47;2.67;;;;;;;45.55;9.06;100462.81;5054501;28;20484;-58
2021/07/26 05:38:10;;;;;;;3.83;2.50;;;;;;;45.75;8.52;100457.50;5054743;28;20037;-56
2021/07/26 05:40:36;;;;;;;6.20;3.30;;;;;;;46.56;8.16;100457.06;5054828;28;20128;-53
2021/07/26 05:43:02;;;;;;;4.90;2.70;;;;;;;47.09;7.65;100452.66;5053321;28;20033;-54
2021/07/26 05:45:27;;;;;;;4.78;3.13;;;;;;;47.35;7.55;100459.91;5054116;28;20035;-51
2021/07/26 05:47:53;;;;;;;5.03;2.80;;;;;;;47.69;7.46;100457.66;5053910;28;20044;-57
2021/07/26 05:50:19;;;;;;;3.95;2.42;;;;;;;47.81;7.54;100460.44;5053447;28;20500;-55
2021/07/26 05:52:48;;;;;;;5.75;2.55;;;;;;;47.90;7.87;100467.94;5054543;28;20439;-54
2021/07/26 05:55:14;;;;;;;3.70;2.60;;;;;;;47.63;7.69;100464.75;5053455;28;20029;-52
2021/07/26 05:57:46;;;;;;;7.32;2.67;;;;;;;47.65;7.51;100453.91;5054014;28;20028;-50
2021/07/26 06:00:17;;;;;;;5.40;3.00;;;;;;;48.02;7.37;100465.03;5053941;28;20435;-57
2021/07/26 06:02:42;;;;;;;3.55;2.90;;;;;;;48.21;7.17;100457.81;5052625;28;20419;-55
2021/07/26 06:05:08;;;;;;;4.75;2.92;;;;;;;48.36;7.00;100457.00;5054651;28;20481;-54
2021/07/26 06:07:34;;;;;;;5.07;3.10;;;;;;;48.78;6.71;100449.91;5072155;28;20040;-54
2021/07/26 06:09:59;;;;;;;5.13;2.63;;;;;;;49.09;6.38;100447.34;5073156;28;20032;-56
2021/07/26 06:12:26;;;;;;;5.90;2.97;;;;;;;49.36;6.03;100447.50;5067002;28;20036;-55
2021/07/26 06:14:52;;;;;;;5.45;2.88;;;;;;;49.69;6.30;100455.50;5063922;28;20033;-55
2021/07/26 06:17:18;;;;;;;6.80;2.90;;;;;;;50.05;5.76;100449.66;5070247;28;20032;-56
2021/07/26 06:19:44;;;;;;;4.82;2.85;;;;;;;50.42;5.84;100431.16;5050897;28;20052;-56
2021/07/26 06:22:09;;;;;;;4.70;3.17;;;;;;;51.00;5.54;100442.63;5050967;28;20109;-58
2021/07/26 06:24:34;;;;;;;8.48;2.83;;;;;;;51.32;5.37;100445.06;5050831;28;20384;-57
2021/07/26 06:27:00;;;;;;;5.88;2.60;;;;;;;51.70;5.00;100445.94;5051108;28;20559;-57
2021/07/26 06:29:27;;;;;;;3.75;2.63;;;;;;;52.03;4.49;100441.34;5057140;28;20028;-55
2021/07/26 06:31:52;;;;;;;5.13;2.70;;;;;;;52.09;4.65;100444.66;5056360;28;20036;-56
2021/07/26 06:34:18;;;;;;;4.97;2.85;;;;;;;52.25;4.54;100444.38;5050986;28;20060;-50
2021/07/26 06:36:44;;;;;;;2.80;2.60;;;;;;;52.47;4.08;100441.72;5052717;28;20086;-51
2021/07/26 06:39:10;;;;;;;3.53;2.90;;;;;;;52.93;4.19;100451.78;5052796;28;20036;-53
2021/07/26 06:41:37;;;;;;;5.40;3.53;;;;;;;52.59;3.88;100415.69;5052603;28;20384;-54
2021/07/26 06:44:03;;;;;;;5.72;2.58;;;;;;;52.91;3.96;100443.63;5053878;28;20460;-56
2021/07/26 06:46:28;;;;;;;7.70;3.20;;;;;;;52.92;3.97;100435.84;5052338;28;20495;-56
2021/07/26 06:48:54;;;;;;;2.80;2.53;;;;;;;53.00;3.95;100428.97;5052051;28;20033;-59
2021/07/26 06:51:21;;;;;;;3.65;3.08;;;;;;;53.03;4.06;100425.31;5052505;28;20029;-49
2021/07/26 06:53:46;;;;;;;4.03;3.08;;;;;;;53.55;3.35;100441.44;5052519;28;20029;-56
2021/07/26 06:56:12;;;;;;;3.40;2.90;;;;;;;53.05;4.07;100444.91;5054353;28;20024;-52
2021/07/26 06:58:39;;;;;;;3.85;2.75;;;;;;;52.95;3.76;100452.22;5071769;28;20039;-55
2021/07/26 07:01:07;;;;;;;3.60;3.30;;;;;;;53.01;3.70;100426.91;5072231;28;20512;-51
2021/07/26 07:03:32;;;;;;;3.67;3.38;;;;;;;53.44;3.54;100444.28;5056811;28;20024;-52
2021/07/26 07:06:11;;;;;;;4.03;2.83;;;;;;;53.40;4.43;100452.03;5056321;28;20036;-52
2021/07/26 07:08:37;;;;;;;3.03;2.78;;;;;;;50.66;4.96;100449.88;5054537;28;20546;-52
2021/07/26 07:11:24;;;;;;;3.90;2.53;;;;;;;50.41;5.82;100447.44;5070581;28;20461;-55
2021/07/26 07:13:51;;;;;;;3.25;2.80;;;;;;;48.84;5.56;100419.19;5058709;28;20040;-53
2021/07/26 07:16:18;;;;;;;3.22;2.60;;;;;;;48.26;6.18;100432.00;5054618;28;20071;-54
2021/07/26 07:18:49;;;;;;;2.65;2.17;;;;;;;48.05;6.47;100444.47;5072062;28;20043;-52
2021/07/26 07:21:19;;;;;;;3.83;2.13;;;;;;;47.94;6.18;100460.34;5072446;28;20032;-50
2021/07/26 07:23:45;;;;;;;4.47;2.13;;;;;;;47.70;6.44;100450.78;5070938;28;20024;-50
2021/07/26 07:26:11;;;;;;;2.40;2.20;;;;;;;47.83;6.43;100443.03;5063724;28;20111;-55
2021/07/26 07:28:37;;;;;;;4.32;2.13;;;;;;;48.03;6.50;100444.00;5071115;28;20062;-54
2021/07/26 07:31:03;;;;;;;3.80;2.05;;;;;;;48.24;6.55;100435.19;5049647;28;20029;-54
2021/07/26 07:33:28;;;;;;;2.75;1.95;;;;;;;48.87;5.70;100444.03;5059828;28;20044;-49
2021/07/26 07:35:54;;;;;;;3.15;2.10;;;;;;;49.90;5.26;100442.91;5071510;28;20105;-56
2021/07/26 07:38:19;;;;;;;2.13;1.95;;;;;;;50.20;5.17;100433.66;5058533;28;20124;-52
2021/07/26 07:40:45;;;;;;;2.17;1.95;;;;;;;50.61;5.05;100443.69;5052431;28;20395;-54
2021/07/26 07:43:11;;;;;;;2.22;2.03;;;;;;;50.29;5.17;100441.16;5068426;28;20040;-55
2021/07/26 07:45:36;;;;;;;2.85;2.15;;;;;;;49.71;5.38;100429.53;5063851;28;20028;-52
2021/07/26 07:48:02;;;;;;;2.53;2.25;;;;;;;49.30;5.39;100435.59;5071282;28;20037;-54
2021/07/26 07:50:28;;;;;;;1.95;1.80;;;;;;;49.73;5.60;100435.66;5071025;28;20025;-53
2021/07/26 07:52:54;;;;;;;1.90;1.80;;;;;;;51.07;4.57;100443.53;5070620;28;20028;-53
2021/07/26 07:55:21;;;;;;;4.70;2.40;;;;;;;52.56;4.16;100433.59;5069857;28;20033;-51
2021/07/26 07:57:51;;;;;;;3.05;2.60;;;;;;;53.79;3.58;100439.03;5069126;28;20028;-47
2021/07/26 08:00:17;;;;;;;2.92;2.75;;;;;;;54.88;2.79;100439.75;5069803;28;20033;-53
2021/07/26 08:02:43;;;;;;;3.53;3.33;;;;;;;55.05;3.03;100434.41;5069064;28;20021;-54
2021/07/26 08:05:08;;;;;;;3.55;3.15;;;;;;;54.76;2.71;100449.63;5070148;28;20028;-56
2021/07/26 08:07:34;;;;;;;3.65;3.45;;;;;;;54.57;3.26;100436.56;5070230;28;20033;-53
2021/07/26 08:10:00;;;;;;;4.20;3.80;;;;;;;54.13;3.41;100429.25;5071080;28;20025;-53
2021/07/26 08:12:26;;;;;;;3.88;3.58;;;;;;;52.47;3.75;100441.72;5070817;28;20479;-52
2021/07/26 08:14:51;;;;;;;3.15;2.83;;;;;;;51.78;3.99;100436.22;5070858;28;20033;-52
2021/07/26 08:17:18;;;;;;;3.60;3.17;;;;;;;51.72;3.83;100432.09;5071308;28;20385;-55
2021/07/26 08:19:43;;;;;;;3.40;3.10;;;;;;;51.09;4.82;100435.41;5070698;28;20032;-53
2021/07/26 08:22:09;;;;;;;5.75;2.92;;;;;;;50.50;4.80;100437.81;5071134;28;20187;-55
2021/07/26 08:24:34;;;;;;;3.60;2.88;;;;;;;48.77;5.87;100436.91;5070156;28;20103;-52
2021/07/26 08:27:00;;;;;;;4.13;2.83;;;;;;;46.50;7.06;100432.19;5070429;28;20111;-52
2021/07/26 08:29:25;;;;;;;3.85;2.70;;;;;;;44.42;8.61;100435.00;5070994;28;20453;-48
2021/07/26 08:31:51;;;;;;;5.25;3.00;;;;;;;42.45;9.79;100435.69;5070899;28;20571;-51
2021/07/26 08:34:16;;;;;;;4.07;2.88;;;;;;;40.64;11.20;100428.78;5070501;28;20052;-52
2021/07/26 08:36:43;;;;;;;8.65;3.20;;;;;;;39.23;12.47;100431.50;5070590;28;20048;-50
2021/07/26 08:39:09;;;;;;;4.78;2.50;;;;;;;38.15;13.34;100426.91;5070862;28;20048;-50
2021/07/26 08:41:35;;;;;;;4.30;3.25;;;;;;;37.10;14.45;100441.06;5070209;28;20036;-52
2021/07/26 08:44:01;;;;;;;6.35;3.20;;;;;;;36.24;15.32;100444.69;5069257;28;20504;-54
2021/07/26 08:46:30;;;;;;;4.65;3.05;;;;;;;35.68;15.64;100443.56;5070983;28;20067;-54
2021/07/26 08:48:56;;;;;;;5.20;3.28;;;;;;;34.97;16.69;100443.97;5071331;28;20044;-53
2021/07/26 08:51:24;;;;;;;8.80;3.35;;;;;;;34.60;17.11;100444.91;5070954;28;20036;-49
2021/07/26 08:53:50;;;;;;;6.68;3.00;;;;;;;34.09;17.50;100435.13;5070834;28;20035;-51
2021/07/26 08:56:17;;;;;;;7.47;2.95;;;;;;;33.71;17.93;100437.00;5070603;28;20107;-52
2021/07/26 08:58:42;;;;;;;7.43;2.92;;;;;;;33.35;18.17;100443.88;5071060;28;20043;-48
2021/07/26 09:01:11;;;;;;;4.35;2.65;;;;;;;33.08;18.15;100449.38;5070446;28;20025;-51
2021/07/26 09:03:37;;;;;;;8.13;2.78;;;;;;;32.57;18.76;100435.69;5069045;28;20040;-54
2021/07/26 09:06:02;;;;;;;4.38;2.45;;;;;;;32.15;19.40;100442.53;5070797;28;20064;-54
2021/07/26 09:08:36;;;;;;;3.05;2.30;;;;;;;32.08;19.09;100443.53;5070910;28;20020;-50
2021/07/26 09:11:03;;;;;;;4.88;2.65;;;;;;;31.61;19.80;100424.47;5070266;28;20475;-52
2021/07/26 09:13:38;;;;;;;3.92;2.50;;;;;;;31.64;19.41;100424.81;5069870;28;20020;-53
2021/07/26 09:16:14;;;;;;;;;;;;;;;32.08;17.91;100435.22;5069490;28;20148;-51
2021/07/26 09:18:40;;;;;;;7.50;3.03;;;;;;;31.54;20.41;100423.78;5070380;28;19953;-52
2021/07/26 09:21:06;;;;;;;6.63;2.40;;;;;;;31.37;20.67;100430.13;5070025;28;20032;-50
2021/07/26 09:23:32;;;;;;;4.75;2.67;;;;;;;31.10;21.15;100408.56;5069980;28;20145;-51
2021/07/26 09:25:58;;;;;;;4.80;2.55;;;;;;;31.20;21.21;100419.03;5070361;28;20161;-49
2021/07/26 09:28:31;;;;;;;4.90;2.60;;;;;;;31.37;20.93;100441.19;5070991;28;20033;-53
2021/07/26 09:30:57;;;;;;;4.03;2.38;;;;;;;31.13;21.39;100429.38;5069190;28;20036;-49
2021/07/26 09:33:30;;;;;;;4.53;2.63;;;;;;;31.28;21.20;100429.69;5070077;28;20116;-51
2021/07/26 09:36:04;;;;;;;4.18;2.78;;;;;;;31.30;21.18;100434.97;5070079;28;20102;-53
2021/07/26 09:38:31;;;;;;;3.07;2.20;;;;;;;31.15;21.08;100421.66;5074096;28;20052;-51
2021/07/26 09:40:57;;;;;;;4.32;2.30;;;;;;;31.13;21.06;100418.31;5073579;28;20107;-53
2021/07/26 09:43:24;;;;;;;4.90;2.80;;;;;;;31.22;21.14;100423.19;5073722;28;20033;-51
2021/07/26 09:45:51;;;;;;;3.10;2.30;;;;;;;31.33;21.13;100427.00;5073683;28;20025;-53
2021/07/26 09:48:18;;;;;;;9.32;2.35;;;;;;;31.56;20.87;100421.59;5073114;28;20032;-51
2021/07/26 09:50:46;;;;;;;3.75;2.53;;;;;;;31.95;20.21;100427.25;5073291;28;20033;-51
2021/07/26 09:53:26;;;;;;;4.68;2.97;;;;;;;32.50;19.81;100428.38;5069359;28;20530;-54
2021/07/26 09:56:14;;;;;;;6.72;2.70;;;;;;;32.83;19.02;100428.53;5062699;28;20040;-54
2021/07/26 09:58:41;;;;;;;5.55;2.70;;;;;;;32.62;18.58;100424.69;5073313;28;20043;-49
2021/07/26 10:01:09;;;;;;;5.40;2.58;;;;;;;32.54;18.38;100425.09;5053844;28;20037;-51
2021/07/26 10:03:39;;;;;;;3.47;2.28;;;;;;;32.42;18.16;100422.44;5053061;28;20495;-52
2021/07/26 10:06:06;;;;;;;4.70;2.20;;;;;;;32.19;18.10;100430.69;5064390;28;20548;-53
2021/07/26 10:08:32;;;;;;;2.85;2.53;;;;;;;31.96;18.07;100414.25;5073294;28;20392;-54
2021/07/26 10:10:58;;;;;;;2.95;2.13;;;;;;;31.78;18.18;100416.19;5069592;28;20025;-53
2021/07/26 10:13:24;;;;;;;4.32;2.40;;;;;;;31.68;17.93;100408.53;5062319;28;20071;-50
2021/07/26 10:15:50;;;;;;;4.60;2.40;;;;;;;31.69;18.63;100412.97;5054506;28;20029;-52
2021/07/26 10:18:16;;;;;;;2.42;2.22;;;;;;;31.65;18.67;100414.56;5073613;28;20376;-54
2021/07/26 10:20:48;;;;;;;3.13;1.92;;;;;;;31.72;18.42;100408.88;5072693;28;20035;-55
2021/07/26 10:23:19;;;;;;;7.90;2.42;;;;;;;31.76;18.98;100404.50;5072650;28;20029;-51
2021/07/26 10:25:53;;;;;;;3.38;2.00;;;;;;;31.88;19.21;100407.22;5072935;28;20028;-51
2021/07/26 10:28:30;;;;;;;2.70;2.20;;;;;;;32.19;18.83;100403.00;5072589;28;20120;-54
2021/07/26 10:30:57;;;;;;;3.88;2.17;;;;;;;32.33;18.98;100409.03;5072962;28;20152;-52
2021/07/26 10:33:23;;;;;;;3.88;1.95;;;;;;;32.63;18.28;100404.19;5063396;28;20049;-56
2021/07/26 10:35:50;;;;;;;3.60;2.63;;;;;;;32.87;17.84;100390.03;5067700;28;20055;-53
2021/07/26 10:38:36;;;;;;;2.40;2.20;;;;;;;33.21;17.80;100398.19;5070440;28;20052;-53
2021/07/26 10:41:01;;;;;;;3.08;2.10;;;;;;;32.98;17.40;100388.25;5054872;28;20029;-54
2021/07/26 10:43:53;;;;;;;2.50;2.10;;;;;;;33.20;17.14;100396.53;5053156;28;20036;-55
2021/07/26 10:46:18;;;;;;;4.68;2.30;;;;;;;32.91;17.13;100394.81;5068930;28;20484;-52
2021/07/26 10:48:53;;;;;;;3.15;2.78;;;;;;;33.07;17.03;100395.84;5071611;28;20063;-55
2021/07/26 10:51:42;;;;;;;5.20;2.50;;;;;;;33.13;16.90;100388.41;5072150;28;20028;-54
2021/07/26 10:54:08;;;;;;;2.97;2.30;;;;;;;32.94;17.23;100385.16;5071466;28;20033;-55
2021/07/26 10:57:02;;;;;;;3.97;2.13;;;;;;;33.30;17.17;100385.53;5071914;28;20055;-51
2021/07/26 10:59:29;;;;;;;3.88;2.33;;;;;;;33.13;17.03;100377.31;5072595;28;20044;-55
2021/07/26 11:02:03;;;;;;;4.03;2.55;;;;;;;33.36;16.78;100381.72;5072709;28;20487;-50
2021/07/26 11:04:31;;;;;;;2.50;2.30;;;;;;;33.35;16.92;100377.25;5072911;28;20177;-53
2021/07/26 11:06:59;;;;;;;4.38;2.33;;;;;;;33.31;16.86;100376.13;5072176;28;20029;-52
2021/07/26 11:09:26;;;;;;;3.25;2.13;;;;;;;33.02;17.04;100365.25;5071797;28;20052;-54
2021/07/26 11:11:53;;;;;;;2.50;2.10;;;;;;;32.95;17.24;100372.16;5072259;28;20035;-54
2021/07/26 11:14:20;;;;;;;4.22;2.90;;;;;;;33.03;18.02;100361.38;5071836;28;20074;-53
2021/07/26 11:19:58;;;;;;;3.85;2.30;;;;;;;32.70;17.23;100368.78;5062125;28;20051;-55
2021/07/26 11:22:26;;;;;;;4.50;2.72;;;;;;;32.44;17.97;100374.00;5072097;28;20032;-57
2021/07/26 11:24:56;;;;;;;4.05;2.65;;;;;;;32.13;17.85;100348.63;5071943;28;20084;-53
2021/07/26 11:27:21;;;;;;;5.53;2.50;;;;;;;32.23;18.64;100364.56;5071090;28;20421;-50
2021/07/26 11:29:49;;;;;;;5.72;2.60;;;;;;;32.19;18.34;100371.66;5071230;28;20550;-56
2021/07/26 11:32:23;;;;;;;4.05;2.50;;;;;;;32.13;18.98;100369.94;5071555;28;20041;-55